Terminal Aerodrome Forecast
Issued by NWS

Home | Current Version | Previous Version | Text Only | Print | Product List | Glossary On
Versions: 1 2 3 4 5 6 7 8 9 10 11 12 13 14 15 16 17 18 19 20 21 22 23 24 25 26
000
FTUS43 KDLH 222300
TAFHYR
TAF
KHYR 222336Z 2300/2324 10006KT 5SM BR BKN014 OVC080
      TEMPO 2303/2306 3SM BR BKN008 OVC014
     FM230600 08006KT 2SM -SNDZ BR OVC006
     FM231200 05008KT 1SM -SN BR OVC005
      TEMPO 2314/2318 3/4SM -SN BR OVC003
     FM232300 03006KT 3SM -SN OVC010=

USA.gov is the U.S. government's official web portal to all federal, state and local government web resources and services.